createdAt,value
2023-04-02T00:00:11.160Z,7.36
2023-04-02T00:02:46.536Z,7.35
2023-04-02T00:05:18.230Z,7.31
2023-04-02T00:07:51.229Z,7.31
2023-04-02T00:10:39.349Z,7.35
2023-04-02T00:13:10.115Z,7.43
2023-04-02T00:15:39.448Z,7.47
2023-04-02T00:18:09.770Z,7.57
2023-04-02T00:20:42.069Z,7.52
2023-04-02T00:23:14.323Z,7.57
2023-04-02T00:25:46.316Z,7.60
2023-04-02T00:28:24.378Z,7.55
2023-04-02T00:30:58.587Z,7.62
2023-04-02T00:33:31.586Z,7.62
2023-04-02T00:35:59.667Z,7.67
2023-04-02T00:38:31.714Z,7.72
2023-04-02T00:41:03.893Z,7.65
2023-04-02T00:43:36.983Z,7.69
2023-04-02T00:46:14.364Z,7.75
2023-04-02T00:49:05.778Z,8.03
2023-04-02T00:51:38.734Z,8.29
2023-04-02T00:54:11.092Z,8.47
2023-04-02T00:56:51.945Z,8.56
2023-04-02T00:59:26.103Z,8.68
2023-04-02T01:02:01.532Z,8.69
2023-04-02T01:04:34.888Z,8.63
2023-04-02T01:07:08.917Z,8.63
2023-04-02T01:09:44.969Z,8.57
2023-04-02T01:13:13.830Z,8.60
2023-04-02T01:15:48.896Z,8.64
2023-04-02T01:18:39.879Z,8.52
2023-04-02T01:21:25.574Z,8.66
2023-04-02T01:24:06.171Z,8.59
2023-04-02T01:27:12.184Z,8.71
2023-04-02T01:29:45.531Z,8.75
2023-04-02T01:32:17.090Z,8.77
2023-04-02T01:34:47.839Z,8.83
2023-04-02T01:37:39.240Z,8.71
2023-04-02T01:40:28.590Z,8.79
2023-04-02T01:43:13.351Z,8.82
2023-04-02T01:45:41.275Z,8.74
2023-04-02T01:48:30.901Z,8.82
2023-04-02T01:50:59.944Z,8.89
2023-04-02T01:53:31.018Z,8.91
2023-04-02T01:56:01.456Z,8.90
2023-04-02T01:58:32.149Z,8.96
2023-04-02T02:01:12.803Z,8.92
2023-04-02T02:03:42.608Z,8.80
2023-04-02T02:06:18.386Z,8.89
2023-04-02T02:08:59.994Z,8.87
2023-04-02T02:11:30.131Z,8.87
2023-04-02T02:14:05.423Z,8.79
2023-04-02T02:16:42.001Z,8.92
2023-04-02T02:19:22.538Z,8.82
2023-04-02T02:21:54.065Z,8.94
2023-04-02T02:24:25.789Z,8.93
2023-04-02T02:27:26.074Z,8.89
2023-04-02T02:29:56.865Z,9.03
2023-04-02T02:32:29.646Z,9.05
2023-04-02T02:35:24.127Z,9.07
2023-04-02T02:38:02.027Z,9.11
2023-04-02T02:40:43.247Z,9.15
2023-04-02T02:43:13.404Z,9.15
2023-04-02T02:45:43.149Z,9.17
2023-04-02T02:48:15.563Z,9.16
2023-04-02T02:50:44.027Z,9.06
2023-04-02T02:53:23.025Z,9.08
2023-04-02T02:55:55.757Z,9.10
2023-04-02T02:58:31.640Z,9.02
2023-04-02T03:00:59.783Z,9.01
2023-04-02T03:03:30.294Z,8.94
2023-04-02T03:06:03.039Z,8.93
2023-04-02T03:08:42.463Z,8.86
2023-04-02T03:11:16.768Z,8.83
2023-04-02T03:13:49.032Z,8.75
2023-04-02T03:16:39.162Z,8.68
2023-04-02T03:19:28.413Z,8.54
2023-04-02T03:22:03.212Z,8.51
2023-04-02T03:24:52.451Z,8.52
2023-04-02T03:27:28.171Z,8.44
2023-04-02T03:29:58.554Z,8.31
2023-04-02T03:32:31.421Z,8.26
2023-04-02T03:35:03.144Z,8.27
2023-04-02T03:37:54.798Z,8.30
2023-04-02T03:40:28.895Z,8.13
2023-04-02T03:43:27.323Z,7.92
2023-04-02T03:46:21.100Z,7.80
2023-04-02T03:49:26.636Z,7.68
2023-04-02T03:52:06.817Z,7.73
2023-04-02T03:54:34.208Z,8.03
2023-04-02T03:57:01.733Z,8.03
2023-04-02T03:59:48.806Z,8.09
2023-04-02T04:02:41.336Z,7.97
2023-04-02T04:05:39.256Z,7.95
2023-04-02T04:08:17.205Z,7.93
2023-04-02T04:10:44.963Z,7.81
2023-04-02T04:13:30.981Z,7.84
2023-04-02T04:16:05.246Z,7.85
2023-04-02T04:19:03.387Z,7.76
2023-04-02T04:21:31.467Z,7.85
2023-04-02T04:24:04.194Z,8.21
2023-04-02T04:27:04.231Z,8.15
2023-04-02T04:30:10.520Z,8.04
2023-04-02T04:32:50.420Z,7.91
2023-04-02T04:35:37.648Z,7.64
2023-04-02T04:38:27.663Z,7.53
2023-04-02T04:41:14.201Z,7.47
2023-04-02T04:44:00.757Z,7.34
2023-04-02T04:46:31.655Z,7.29
2023-04-02T04:49:18.017Z,7.21
2023-04-02T04:51:52.160Z,7.16
2023-04-02T04:54:20.342Z,7.16
2023-04-02T04:56:54.051Z,7.17
2023-04-02T04:59:27.308Z,7.24
2023-04-02T05:02:19.841Z,7.24
2023-04-02T05:04:51.973Z,7.21
2023-04-02T05:07:26.549Z,7.26
2023-04-02T05:10:12.909Z,7.27
2023-04-02T05:12:48.543Z,7.42
2023-04-02T05:15:24.845Z,7.45
2023-04-02T05:18:30.892Z,7.52
2023-04-02T05:21:08.653Z,7.55
2023-04-02T05:23:46.475Z,7.72
2023-04-02T05:26:19.354Z,7.83
2023-04-02T05:29:10.376Z,7.94
2023-04-02T05:31:54.619Z,8.28
2023-04-02T05:34:29.715Z,8.36
2023-04-02T05:36:58.500Z,8.61
2023-04-02T05:39:27.481Z,8.79
2023-04-02T05:42:03.515Z,8.88
2023-04-02T05:44:34.216Z,9.03
2023-04-02T05:47:12.390Z,9.12
2023-04-02T05:49:48.243Z,9.21
2023-04-02T05:52:21.282Z,9.42
2023-04-02T05:54:56.788Z,9.60
2023-04-02T06:00:17.109Z,9.86
2023-04-02T06:03:07.443Z,9.89
2023-04-02T06:05:40.063Z,10.15
2023-04-02T06:08:16.378Z,10.14
2023-04-02T06:10:51.025Z,10.31
2023-04-02T06:13:19.058Z,10.38
2023-04-02T06:15:47.935Z,10.43
2023-04-02T06:18:20.057Z,10.52
2023-04-02T06:20:47.772Z,10.66
2023-04-02T06:23:31.294Z,10.68
2023-04-02T06:26:03.582Z,10.87
2023-04-02T06:28:38.613Z,10.84
2023-04-02T06:31:12.311Z,10.93
2023-04-02T06:33:39.664Z,11.06
2023-04-02T06:36:09.348Z,11.11
2023-04-02T06:38:37.897Z,11.24
2023-04-02T06:41:20.756Z,11.24
2023-04-02T06:43:54.701Z,11.38
2023-04-02T06:46:36.370Z,11.54
2023-04-02T06:49:28.325Z,11.72
2023-04-02T06:51:58.441Z,11.66
2023-04-02T06:54:26.074Z,11.87
2023-04-02T06:56:56.469Z,11.86
2023-04-02T06:59:24.684Z,12.20
2023-04-02T07:02:00.999Z,12.40
2023-04-02T07:04:29.023Z,12.51
2023-04-02T07:06:56.878Z,12.55
2023-04-02T07:09:24.187Z,12.57
2023-04-02T07:11:51.649Z,12.64
2023-04-02T07:14:18.991Z,12.90
2023-04-02T07:16:46.381Z,13.10
2023-04-02T07:19:22.212Z,13.24
2023-04-02T07:21:50.166Z,13.54
2023-04-02T07:24:18.073Z,13.42
2023-04-02T07:26:48.309Z,13.71
2023-04-02T07:29:17.542Z,13.90
2023-04-02T07:31:45.142Z,13.86
2023-04-02T07:34:12.734Z,13.58
2023-04-02T07:36:39.943Z,13.76
2023-04-02T07:39:07.452Z,13.94
2023-04-02T07:41:53.739Z,14.43
2023-04-02T07:44:21.407Z,14.43
2023-04-02T07:46:48.933Z,14.80
2023-04-02T07:49:16.772Z,14.33
2023-04-02T07:51:44.489Z,14.44
2023-04-02T07:54:13.097Z,14.21
2023-04-02T07:56:40.196Z,14.23
2023-04-02T07:59:08.001Z,14.41
2023-04-02T08:01:35.618Z,14.52
2023-04-02T08:04:04.984Z,14.69
2023-04-02T08:06:32.197Z,15.04
2023-04-02T08:08:59.322Z,15.41
2023-04-02T08:11:28.091Z,15.77
2023-04-02T08:13:56.334Z,16.03
2023-04-02T08:16:25.334Z,15.93
2023-04-02T08:18:52.673Z,15.54
2023-04-02T08:21:20.252Z,15.38
2023-04-02T08:23:47.860Z,15.69
2023-04-02T08:26:18.932Z,15.98
2023-04-02T08:28:46.723Z,16.70
2023-04-02T08:31:17.467Z,17.35
2023-04-02T08:33:44.879Z,17.93
2023-04-02T08:36:19.238Z,17.71
2023-04-02T08:38:46.936Z,18.06
2023-04-02T08:41:24.671Z,17.97
2023-04-02T08:44:08.390Z,18.07
2023-04-02T08:46:55.745Z,18.29
2023-04-02T08:49:32.535Z,18.30
2023-04-02T08:52:00.990Z,18.58
2023-04-02T08:54:38.105Z,19.18
2023-04-02T08:57:20.826Z,18.92
2023-04-02T08:59:51.128Z,18.25
2023-04-02T09:02:38.353Z,18.45
2023-04-02T09:05:08.391Z,18.39
2023-04-02T09:07:36.298Z,18.19
2023-04-02T09:10:05.103Z,18.66
2023-04-02T09:12:33.112Z,18.71
2023-04-02T09:15:29.655Z,18.85
2023-04-02T09:18:06.893Z,18.19
2023-04-02T09:20:34.217Z,17.80
2023-04-02T09:23:01.388Z,17.52
2023-04-02T09:25:34.371Z,17.78
2023-04-02T09:28:04.267Z,17.76
2023-04-02T09:30:59.580Z,17.97
2023-04-02T09:33:48.404Z,17.63
2023-04-02T09:36:38.990Z,17.64
2023-04-02T09:39:18.279Z,17.78
2023-04-02T09:41:52.857Z,18.12
2023-04-02T09:44:32.861Z,18.04
2023-04-02T09:47:04.239Z,18.12
2023-04-02T09:49:37.079Z,17.86
2023-04-02T09:52:09.683Z,18.68
2023-04-02T09:54:43.626Z,18.05
2023-04-02T09:57:24.834Z,18.13
2023-04-02T10:00:41.547Z,18.67
2023-04-02T10:03:27.618Z,18.28
2023-04-02T10:06:15.500Z,18.43
2023-04-02T10:08:45.193Z,18.07
2023-04-02T10:11:18.974Z,18.76
2023-04-02T10:13:57.244Z,18.91
2023-04-02T10:16:33.639Z,18.31
2023-04-02T10:19:04.394Z,18.82
2023-04-02T10:21:35.944Z,19.39
2023-04-02T10:24:10.629Z,19.64
2023-04-02T10:26:42.177Z,20.39
2023-04-02T10:29:31.646Z,20.38
2023-04-02T10:32:06.288Z,19.80
2023-04-02T10:35:06.068Z,19.10
2023-04-02T10:37:36.353Z,19.49
2023-04-02T10:40:14.381Z,20.90
2023-04-02T10:43:13.211Z,20.92
2023-04-02T10:45:46.135Z,22.57
2023-04-02T10:48:31.304Z,21.96
2023-04-02T10:51:12.113Z,22.25
2023-04-02T10:53:47.628Z,23.00
2023-04-02T10:56:15.521Z,23.52
2023-04-02T10:59:10.999Z,23.55
2023-04-02T11:01:41.456Z,23.59
2023-04-02T11:04:22.726Z,22.77
2023-04-02T11:07:13.236Z,24.06
2023-04-02T11:09:45.926Z,25.06
2023-04-02T11:12:46.587Z,24.54
2023-04-02T11:15:19.933Z,25.25
2023-04-02T11:17:48.136Z,23.91
2023-04-02T11:20:53.155Z,24.02
2023-04-02T11:23:21.804Z,21.66
2023-04-02T11:25:49.184Z,21.83
2023-04-02T11:28:32.695Z,21.71
2023-04-02T11:31:00.322Z,20.26
2023-04-02T11:33:39.964Z,20.19
2023-04-02T11:36:47.348Z,21.54
2023-04-02T11:39:46.353Z,21.04
2023-04-02T11:42:19.396Z,22.15
2023-04-02T11:44:46.752Z,21.67
2023-04-02T11:47:22.517Z,20.72
2023-04-02T11:50:16.465Z,19.61
2023-04-02T11:52:46.442Z,19.65
2023-04-02T11:55:48.340Z,21.54
2023-04-02T11:58:42.848Z,21.80
2023-04-02T12:01:34.169Z,21.58
2023-04-02T12:04:16.633Z,22.62
2023-04-02T12:06:47.308Z,22.30
2023-04-02T12:09:20.126Z,24.18
2023-04-02T12:11:49.844Z,24.00
2023-04-02T12:14:43.364Z,24.42
2023-04-02T12:17:40.137Z,24.41
2023-04-02T12:20:09.140Z,24.04
2023-04-02T12:22:47.981Z,25.00
2023-04-02T12:25:21.795Z,25.02
2023-04-02T12:28:02.865Z,25.45
2023-04-02T12:30:30.063Z,25.79
2023-04-02T12:32:57.861Z,25.77
2023-04-02T12:35:28.150Z,25.17
2023-04-02T12:37:55.886Z,24.89
2023-04-02T12:40:23.977Z,25.75
2023-04-02T12:42:51.627Z,24.55
2023-04-02T12:45:29.294Z,23.32
2023-04-02T12:47:58.585Z,23.56
2023-04-02T12:50:26.336Z,24.49
2023-04-02T12:52:59.337Z,25.03
2023-04-02T12:55:28.036Z,24.23
2023-04-02T12:57:59.958Z,23.33
2023-04-02T13:00:31.693Z,24.51
2023-04-02T13:03:06.923Z,23.07
2023-04-02T13:05:57.393Z,24.17
2023-04-02T13:08:40.554Z,24.77
2023-04-02T13:11:08.172Z,24.25
2023-04-02T13:13:42.157Z,23.68
2023-04-02T13:16:15.833Z,23.56
2023-04-02T13:18:46.696Z,22.97
2023-04-02T13:21:14.814Z,23.24
2023-04-02T13:23:41.767Z,23.21
2023-04-02T13:26:09.239Z,23.35
2023-04-02T13:28:37.028Z,23.73
2023-04-02T13:31:04.780Z,22.89
2023-04-02T13:33:34.631Z,23.78
2023-04-02T13:36:01.952Z,24.21
2023-04-02T13:38:29.915Z,24.80
2023-04-02T13:40:57.831Z,24.33
2023-04-02T13:43:25.211Z,24.01
2023-04-02T13:45:56.780Z,24.39
2023-04-02T13:48:28.346Z,24.41
2023-04-02T13:50:56.024Z,25.52
2023-04-02T13:53:32.376Z,24.18
2023-04-02T13:55:59.435Z,23.91
2023-04-02T13:58:27.602Z,24.38
2023-04-02T14:00:57.039Z,24.62
2023-04-02T14:03:25.068Z,25.31
2023-04-02T14:06:17.493Z,23.88
2023-04-02T14:09:02.886Z,23.58
2023-04-02T14:11:54.152Z,22.81
2023-04-02T14:15:06.919Z,20.12
2023-04-02T14:17:51.996Z,19.06
2023-04-02T14:20:28.731Z,21.24
2023-04-02T14:23:43.948Z,21.03
2023-04-02T14:26:46.005Z,21.15
2023-04-02T14:29:37.438Z,22.67
2023-04-02T14:32:21.329Z,19.07
2023-04-02T14:35:14.799Z,18.01
2023-04-02T14:38:05.085Z,17.47
2023-04-02T14:41:12.834Z,16.53
2023-04-02T14:43:53.877Z,16.44
2023-04-02T14:46:26.054Z,15.85
2023-04-02T14:49:02.330Z,15.40
2023-04-02T14:51:38.031Z,15.48
2023-04-02T14:54:27.296Z,15.00
2023-04-02T14:57:00.700Z,14.96
2023-04-02T14:59:34.409Z,15.04
2023-04-02T15:02:09.315Z,14.59
2023-04-02T15:04:44.275Z,14.22
2023-04-02T15:07:20.446Z,14.24
2023-04-02T15:09:55.795Z,14.08
2023-04-02T15:12:29.372Z,14.19
2023-04-02T15:15:33.157Z,14.32
2023-04-02T15:18:11.216Z,14.66
2023-04-02T15:21:07.285Z,14.77
2023-04-02T15:23:52.430Z,14.97
2023-04-02T15:26:30.945Z,14.90
2023-04-02T15:29:29.566Z,15.04
2023-04-02T15:32:12.447Z,15.06
2023-04-02T15:34:49.625Z,15.40
2023-04-02T15:37:37.994Z,15.49
2023-04-02T15:40:05.841Z,15.68
2023-04-02T15:42:44.479Z,15.99
2023-04-02T15:45:32.458Z,16.40
2023-04-02T15:48:37.372Z,17.51
2023-04-02T15:51:41.733Z,17.78
2023-04-02T15:54:30.839Z,18.11
2023-04-02T15:57:21.294Z,17.71
2023-04-02T16:00:07.351Z,17.02
2023-04-02T16:02:41.350Z,17.40
2023-04-02T16:05:34.360Z,16.62
2023-04-02T16:08:22.890Z,17.60
2023-04-02T16:10:51.168Z,17.34
2023-04-02T16:13:32.948Z,16.72
2023-04-02T16:16:33.060Z,15.78
2023-04-02T16:19:15.982Z,16.33
2023-04-02T16:22:00.147Z,16.20
2023-04-02T16:24:31.035Z,16.17
2023-04-02T16:27:20.172Z,16.06
2023-04-02T16:30:18.077Z,15.79
2023-04-02T16:32:53.047Z,15.31
2023-04-02T16:35:43.197Z,15.66
2023-04-02T16:38:42.096Z,15.91
2023-04-02T16:41:14.532Z,15.42
2023-04-02T16:44:15.862Z,15.38
2023-04-02T16:47:14.133Z,15.29
2023-04-02T16:50:00.907Z,14.94
2023-04-02T16:52:44.651Z,14.27
2023-04-02T16:55:20.791Z,14.07
2023-04-02T16:58:01.847Z,13.67
2023-04-02T17:00:59.113Z,13.59
2023-04-02T17:04:08.980Z,13.69
2023-04-02T17:06:51.135Z,13.71
2023-04-02T17:09:30.654Z,13.59
2023-04-02T17:12:12.528Z,13.70
2023-04-02T17:14:51.287Z,13.63
2023-04-02T17:17:21.261Z,13.78
2023-04-02T17:19:52.921Z,13.76
2023-04-02T17:22:23.535Z,13.75
2023-04-02T17:24:57.994Z,13.87
2023-04-02T17:27:28.206Z,13.76
2023-04-02T17:30:03.841Z,13.83
2023-04-02T17:32:33.790Z,13.69
2023-04-02T17:35:18.855Z,13.80
2023-04-02T17:37:58.083Z,13.70
2023-04-02T17:41:06.063Z,13.62
2023-04-02T17:43:45.875Z,13.44
2023-04-02T17:46:48.720Z,13.34
2023-04-02T17:49:40.392Z,13.13
2023-04-02T17:52:38.427Z,13.06
2023-04-02T17:55:28.268Z,12.95
2023-04-02T17:58:12.053Z,12.94
2023-04-02T18:01:01.084Z,12.57
2023-04-02T18:03:50.628Z,12.50
2023-04-02T18:06:44.069Z,12.62
2023-04-02T18:09:27.763Z,12.28
2023-04-02T18:12:18.928Z,12.22
2023-04-02T18:15:03.530Z,12.07
2023-04-02T18:17:52.741Z,11.97
2023-04-02T18:20:41.225Z,11.84
2023-04-02T18:23:20.492Z,11.70
2023-04-02T18:26:03.643Z,11.55
2023-04-02T18:28:41.786Z,11.59
2023-04-02T18:31:36.288Z,11.30
2023-04-02T18:34:24.546Z,11.37
2023-04-02T18:36:59.715Z,11.26
2023-04-02T18:40:13.186Z,11.28
2023-04-02T18:42:47.127Z,11.23
2023-04-02T18:45:49.761Z,11.08
2023-04-02T18:48:29.647Z,11.19
2023-04-02T18:51:01.231Z,11.05
2023-04-02T18:53:33.754Z,10.89
2023-04-02T18:56:11.977Z,10.98
2023-04-02T18:58:45.497Z,11.06
2023-04-02T19:01:19.259Z,10.99
2023-04-02T19:04:02.277Z,11.13
2023-04-02T19:06:44.835Z,11.00
2023-04-02T19:09:26.467Z,11.04
2023-04-02T19:11:55.259Z,11.07
2023-04-02T19:14:24.087Z,10.78
2023-04-02T19:17:11.040Z,10.95
2023-04-02T19:19:51.925Z,10.88
2023-04-02T19:22:33.134Z,10.88
2023-04-02T19:25:26.738Z,10.81
2023-04-02T19:28:06.669Z,10.89
2023-04-02T19:30:40.045Z,10.78
2023-04-02T19:33:22.166Z,10.74
2023-04-02T19:36:16.329Z,10.86
2023-04-02T19:38:49.459Z,10.81
2023-04-02T19:41:32.753Z,10.65
2023-04-02T19:44:03.085Z,10.69
2023-04-02T19:46:32.076Z,10.75
2023-04-02T19:49:28.957Z,10.79
2023-04-02T19:51:57.701Z,10.73
2023-04-02T19:54:26.030Z,10.74
2023-04-02T19:56:54.197Z,10.50
2023-04-02T19:59:22.718Z,10.49
2023-04-02T20:01:51.253Z,10.59
2023-04-02T20:04:20.536Z,10.74
2023-04-02T20:06:48.648Z,10.62
2023-04-02T20:09:16.976Z,10.43
2023-04-02T20:11:46.223Z,10.61
2023-04-02T20:14:14.334Z,10.66
2023-04-02T20:16:44.501Z,10.72
2023-04-02T20:19:13.554Z,10.52
2023-04-02T20:21:41.459Z,10.55
2023-04-02T20:24:09.412Z,10.34
2023-04-02T20:26:38.241Z,10.38
2023-04-02T20:29:05.958Z,10.55
2023-04-02T20:31:34.740Z,10.43
2023-04-02T20:34:05.440Z,10.26
2023-04-02T20:36:34.117Z,10.38
2023-04-02T20:39:01.445Z,10.43
2023-04-02T20:41:30.075Z,10.43
2023-04-02T20:43:57.812Z,10.39
2023-04-02T20:46:25.787Z,10.28
2023-04-02T20:48:52.959Z,10.34
2023-04-02T20:51:20.017Z,10.42
2023-04-02T20:53:48.022Z,10.46
2023-04-02T20:56:17.085Z,10.40
2023-04-02T20:58:44.824Z,10.38
2023-04-02T21:01:20.767Z,10.42
2023-04-02T21:03:48.972Z,10.56
2023-04-02T21:06:17.153Z,10.47
2023-04-02T21:08:44.762Z,10.52
2023-04-02T21:11:12.278Z,10.46
2023-04-02T21:13:43.875Z,10.46
2023-04-02T21:16:22.412Z,10.46
2023-04-02T21:18:52.797Z,10.51
2023-04-02T21:21:21.179Z,10.44
2023-04-02T21:23:54.007Z,10.49
2023-04-02T21:26:21.043Z,10.20
2023-04-02T21:28:47.965Z,10.17
2023-04-02T21:31:18.628Z,10.08
2023-04-02T21:33:48.088Z,9.98
2023-04-02T21:36:18.077Z,10.01
2023-04-02T21:38:47.716Z,9.99
2023-04-02T21:41:38.615Z,9.89
2023-04-02T21:44:07.047Z,9.83
2023-04-02T21:46:39.673Z,9.76
2023-04-02T21:49:08.494Z,9.77
2023-04-02T21:51:37.655Z,9.67
2023-04-02T21:54:05.052Z,9.63
2023-04-02T21:56:35.690Z,9.54
2023-04-02T21:59:04.924Z,9.35
2023-04-02T22:01:36.022Z,9.33
2023-04-02T22:04:05.765Z,9.35
2023-04-02T22:06:37.659Z,9.16
2023-04-02T22:09:09.500Z,8.99
2023-04-02T22:11:40.756Z,8.96
2023-04-02T22:14:07.775Z,8.94
2023-04-02T22:16:35.609Z,8.83
2023-04-02T22:19:05.670Z,8.78
2023-04-02T22:21:33.587Z,8.84
2023-04-02T22:24:05.005Z,8.65
2023-04-02T22:26:33.329Z,8.68
2023-04-02T22:29:01.562Z,8.56
2023-04-02T22:31:31.228Z,8.69
2023-04-02T22:33:59.841Z,8.80
2023-04-02T22:36:28.293Z,8.64
2023-04-02T22:38:55.462Z,8.73
2023-04-02T22:41:29.593Z,8.76
2023-04-02T22:43:57.079Z,8.78
2023-04-02T22:46:26.817Z,8.57
2023-04-02T22:48:55.959Z,8.66
2023-04-02T22:51:24.864Z,8.77
2023-04-02T22:53:54.287Z,8.57
2023-04-02T22:56:24.281Z,8.55
2023-04-02T22:58:51.243Z,8.58
2023-04-02T23:01:22.244Z,8.66
2023-04-02T23:03:50.117Z,8.55
2023-04-02T23:06:18.437Z,8.35
2023-04-02T23:08:46.295Z,8.53
2023-04-02T23:11:16.651Z,8.56
2023-04-02T23:13:45.043Z,8.47
2023-04-02T23:16:13.924Z,8.39
2023-04-02T23:18:42.818Z,8.41
2023-04-02T23:21:10.160Z,8.43
2023-04-02T23:23:37.558Z,8.38
2023-04-02T23:26:11.487Z,8.39
2023-04-02T23:28:40.497Z,8.22
2023-04-02T23:31:11.638Z,8.14
2023-04-02T23:33:38.882Z,8.25
2023-04-02T23:36:16.802Z,8.28
2023-04-02T23:38:44.455Z,8.27
2023-04-02T23:41:14.754Z,8.24
2023-04-02T23:43:42.754Z,8.21
2023-04-02T23:46:10.136Z,7.85
2023-04-02T23:48:37.934Z,8.00
2023-04-02T23:51:05.988Z,8.03
2023-04-02T23:53:34.684Z,7.86
2023-04-02T23:56:01.819Z,7.94
2023-04-02T23:58:29.689Z,8.03
